createdAt,value
2023-10-16T00:00:42.579Z,1.20
2023-10-16T00:03:14.304Z,1.25
2023-10-16T00:05:50.754Z,1.17
2023-10-16T00:08:24.116Z,1.27
2023-10-16T00:10:59.800Z,1.33
2023-10-16T00:13:36.692Z,1.00
2023-10-16T00:16:09.905Z,1.35
2023-10-16T00:18:41.701Z,1.40
2023-10-16T00:21:16.010Z,2.05
2023-10-16T00:23:49.059Z,1.85
2023-10-16T00:26:21.562Z,1.58
2023-10-16T00:29:02.526Z,1.70
2023-10-16T00:31:39.171Z,1.42
2023-10-16T00:34:10.321Z,1.88
2023-10-16T00:36:41.085Z,2.67
2023-10-16T00:41:50.783Z,1.17
2023-10-16T00:44:23.823Z,1.15
2023-10-16T00:46:55.493Z,1.67
2023-10-16T00:49:26.781Z,1.48
2023-10-16T00:51:57.714Z,1.38
2023-10-16T00:54:34.203Z,1.58
2023-10-16T00:57:08.739Z,1.23
2023-10-16T00:59:41.049Z,1.50
2023-10-16T01:02:17.140Z,1.42
2023-10-16T01:04:49.043Z,1.45
2023-10-16T01:07:21.187Z,1.50
2023-10-16T01:09:54.663Z,0.75
2023-10-16T01:12:31.509Z,1.60
2023-10-16T01:15:02.113Z,1.20
2023-10-16T01:17:36.555Z,1.33
2023-10-16T01:20:10.923Z,1.75
2023-10-16T01:22:41.701Z,1.65
2023-10-16T01:25:17.375Z,1.98
2023-10-16T01:27:48.734Z,1.08
2023-10-16T01:30:20.936Z,1.60
2023-10-16T01:32:51.706Z,1.35
2023-10-16T01:37:56.593Z,1.45
2023-10-16T01:40:38.854Z,0.88
2023-10-16T01:43:18.011Z,1.15
2023-10-16T01:45:55.075Z,1.30
2023-10-16T01:48:26.114Z,1.23
2023-10-16T01:50:56.908Z,1.08
2023-10-16T01:53:34.501Z,1.10
2023-10-16T01:56:16.469Z,0.80
2023-10-16T01:58:51.405Z,1.08
2023-10-16T02:01:24.075Z,1.17
2023-10-16T02:03:55.337Z,1.48
2023-10-16T02:06:27.991Z,0.63
2023-10-16T02:09:01.596Z,0.70
2023-10-16T02:11:38.308Z,1.05
2023-10-16T02:14:08.599Z,1.23
2023-10-16T02:16:43.043Z,0.63
2023-10-16T02:19:18.171Z,1.27
2023-10-16T02:21:48.901Z,0.98
2023-10-16T02:24:19.781Z,0.73
2023-10-16T02:27:03.555Z,0.80
2023-10-16T02:29:35.804Z,0.57
2023-10-16T02:32:06.642Z,0.73
2023-10-16T02:34:37.724Z,0.75
2023-10-16T02:37:11.497Z,0.73
2023-10-16T02:39:43.247Z,1.33
2023-10-16T02:42:18.048Z,0.95
2023-10-16T02:44:52.554Z,0.93
2023-10-16T02:47:28.053Z,0.55
2023-10-16T02:49:58.933Z,0.82
2023-10-16T02:52:31.775Z,1.23
2023-10-16T02:55:02.796Z,0.88
2023-10-16T02:57:36.848Z,0.93
2023-10-16T03:00:18.866Z,1.13
2023-10-16T03:02:53.883Z,1.30
2023-10-16T03:05:26.756Z,1.42
2023-10-16T03:07:57.510Z,1.00
2023-10-16T03:10:27.845Z,1.15
2023-10-16T03:15:47.102Z,1.00
2023-10-16T03:18:23.705Z,0.90
2023-10-16T03:21:07.818Z,0.88
2023-10-16T03:23:43.489Z,0.52
2023-10-16T03:26:21.045Z,1.02
2023-10-16T03:28:54.626Z,0.95
2023-10-16T03:31:25.922Z,0.75
2023-10-16T03:33:57.277Z,0.95
2023-10-16T03:36:28.043Z,1.50
2023-10-16T03:41:40.649Z,0.73
2023-10-16T03:44:16.122Z,1.48
2023-10-16T03:46:48.273Z,1.27
2023-10-16T03:49:19.428Z,1.17
2023-10-16T03:51:52.311Z,1.20
2023-10-16T03:54:32.175Z,1.15
2023-10-16T03:57:09.318Z,1.42
2023-10-16T03:59:44.278Z,0.82
2023-10-16T04:02:18.194Z,1.75
2023-10-16T04:04:49.768Z,0.90
2023-10-16T04:07:20.523Z,1.35
2023-10-16T04:09:56.416Z,1.50
2023-10-16T04:12:27.227Z,0.95
2023-10-16T04:17:37.685Z,1.08
2023-10-16T04:20:22.290Z,0.82
2023-10-16T04:22:59.896Z,0.90
2023-10-16T04:25:41.624Z,1.20
2023-10-16T04:28:20.429Z,1.25
2023-10-16T04:30:54.298Z,1.85
2023-10-16T04:33:45.506Z,1.35
2023-10-16T04:36:37.651Z,1.50
2023-10-16T04:39:30.426Z,1.02
2023-10-16T04:42:14.166Z,0.52
2023-10-16T04:48:25.057Z,1.88
2023-10-16T04:51:33.985Z,0.73
2023-10-16T04:54:18.038Z,1.02
2023-10-16T04:57:15.498Z,1.50
2023-10-16T05:00:14.099Z,1.45
2023-10-16T05:02:53.417Z,1.42
2023-10-16T05:05:57.796Z,1.50
2023-10-16T05:09:00.718Z,1.23
2023-10-16T05:11:37.809Z,1.15
2023-10-16T05:17:17.485Z,1.08
2023-10-16T05:19:46.597Z,1.02
2023-10-16T05:22:33.037Z,1.13
2023-10-16T05:25:16.204Z,1.58
2023-10-16T05:27:59.357Z,1.17
2023-10-16T05:30:41.962Z,1.35
2023-10-16T05:33:24.722Z,0.95
2023-10-16T05:38:53.294Z,1.23
2023-10-16T05:41:35.914Z,1.48
2023-10-16T05:44:18.542Z,1.73
2023-10-16T05:47:01.723Z,1.67
2023-10-16T05:49:47.299Z,1.10
2023-10-16T05:52:32.415Z,1.73
2023-10-16T05:55:18.182Z,1.27
2023-10-16T05:58:01.589Z,1.38
2023-10-16T06:00:45.027Z,1.13
2023-10-16T06:03:28.200Z,0.98
2023-10-16T06:06:11.540Z,0.95
2023-10-16T06:08:54.699Z,1.10
2023-10-16T06:11:48.004Z,1.20
2023-10-16T06:14:18.820Z,1.08
2023-10-16T06:16:55.027Z,1.08
2023-10-16T06:19:26.016Z,1.15
2023-10-16T06:22:07.804Z,1.05
2023-10-16T06:24:43.495Z,1.20
2023-10-16T06:27:21.397Z,1.08
2023-10-16T06:29:56.033Z,1.23
2023-10-16T06:32:32.559Z,1.13
2023-10-16T06:35:03.943Z,1.13
2023-10-16T06:37:37.861Z,1.42
2023-10-16T06:40:18.032Z,1.63
2023-10-16T06:43:11.114Z,1.98
2023-10-16T06:45:58.011Z,1.30
2023-10-16T06:48:30.326Z,1.13
2023-10-16T06:51:05.828Z,1.08
2023-10-16T06:53:38.997Z,1.27
2023-10-16T06:56:15.814Z,1.02
2023-10-16T06:58:54.448Z,1.27
2023-10-16T07:01:28.709Z,0.98
2023-10-16T07:04:02.652Z,1.00
2023-10-16T07:06:36.413Z,1.10
2023-10-16T07:09:07.678Z,1.42
2023-10-16T07:11:43.812Z,1.20
2023-10-16T07:14:18.965Z,0.93
2023-10-16T07:16:49.784Z,0.65
2023-10-16T07:19:23.052Z,1.25
2023-10-16T07:21:53.435Z,1.00
2023-10-16T07:24:24.062Z,0.77
2023-10-16T07:26:57.291Z,0.95
2023-10-16T07:29:30.747Z,0.93
2023-10-16T07:32:03.140Z,0.98
2023-10-16T07:34:34.580Z,0.63
2023-10-16T07:37:06.211Z,0.70
2023-10-16T07:39:40.185Z,0.63
2023-10-16T07:42:11.836Z,0.65
2023-10-16T07:44:46.893Z,1.35
2023-10-16T07:47:21.987Z,0.90
2023-10-16T07:49:52.721Z,0.88
2023-10-16T07:52:23.070Z,1.25
2023-10-16T07:54:53.314Z,0.70
2023-10-16T07:57:25.668Z,1.02
2023-10-16T08:00:14.811Z,0.75
2023-10-16T08:02:49.151Z,0.60
2023-10-16T08:05:20.304Z,0.75
2023-10-16T08:07:51.140Z,0.65
2023-10-16T08:10:33.986Z,0.77
2023-10-16T08:13:13.140Z,1.05
2023-10-16T08:15:51.187Z,0.77
2023-10-16T08:18:27.230Z,0.43
2023-10-16T08:21:07.708Z,0.80
2023-10-16T08:23:39.701Z,1.08
2023-10-16T08:26:16.320Z,0.52
2023-10-16T08:31:36.721Z,0.55
2023-10-16T08:34:11.862Z,0.50
2023-10-16T08:36:42.137Z,0.47
2023-10-16T08:39:17.283Z,0.60
2023-10-16T08:41:53.803Z,0.75
2023-10-16T08:44:27.965Z,0.63
2023-10-16T08:47:17.531Z,0.60
2023-10-16T08:49:58.913Z,0.47
2023-10-16T08:52:36.240Z,0.45
2023-10-16T08:55:16.333Z,0.85
2023-10-16T08:57:49.619Z,0.60
2023-10-16T09:00:24.376Z,0.88
2023-10-16T09:02:59.650Z,0.30
2023-10-16T09:05:31.338Z,0.45
2023-10-16T09:08:02.116Z,0.52
2023-10-16T09:10:34.792Z,0.45
2023-10-16T09:13:20.837Z,0.80
2023-10-16T09:15:56.607Z,0.50
2023-10-16T09:21:02.118Z,0.28
2023-10-16T09:23:37.820Z,0.80
2023-10-16T09:26:13.098Z,0.55
2023-10-16T09:28:43.618Z,0.28
2023-10-16T09:31:19.939Z,0.57
2023-10-16T09:33:54.169Z,0.30
2023-10-16T09:36:24.906Z,0.50
2023-10-16T09:38:58.143Z,0.47
2023-10-16T09:41:44.773Z,0.70
2023-10-16T09:44:38.371Z,0.73
2023-10-16T09:47:25.293Z,0.30
2023-10-16T09:50:02.313Z,0.40
2023-10-16T09:52:34.973Z,0.50
2023-10-16T09:55:07.162Z,0.30
2023-10-16T09:57:52.148Z,0.40
2023-10-16T10:00:30.383Z,0.32
2023-10-16T10:03:13.150Z,0.40
2023-10-16T10:05:56.751Z,0.50
2023-10-16T10:08:52.821Z,0.32
2023-10-16T10:11:39.249Z,0.40
2023-10-16T10:14:30.477Z,0.47
2023-10-16T10:17:05.544Z,0.40
2023-10-16T10:19:44.082Z,0.43
2023-10-16T10:22:19.697Z,0.43
2023-10-16T10:24:53.597Z,0.50
2023-10-16T10:27:27.491Z,1.65
2023-10-16T10:30:05.037Z,0.47
2023-10-16T10:32:37.069Z,0.60
2023-10-16T10:35:28.244Z,0.30
2023-10-16T10:38:18.814Z,0.77
2023-10-16T10:41:19.630Z,0.30
2023-10-16T10:43:51.556Z,0.40
2023-10-16T10:46:29.988Z,0.25
2023-10-16T10:49:06.282Z,0.70
2023-10-16T10:51:38.475Z,0.32
2023-10-16T10:54:14.254Z,0.47
2023-10-16T10:56:49.361Z,0.45
2023-10-16T10:59:42.384Z,0.73
2023-10-16T11:02:24.020Z,0.30
2023-10-16T11:05:00.307Z,0.40
2023-10-16T11:07:41.386Z,0.30
2023-10-16T11:10:17.405Z,0.40
2023-10-16T11:12:47.772Z,2.50
2023-10-16T11:15:23.535Z,0.70
2023-10-16T11:18:07.163Z,0.40
2023-10-16T11:20:41.056Z,0.45
2023-10-16T11:23:14.101Z,0.63
2023-10-16T11:25:51.510Z,0.52
2023-10-16T11:28:29.810Z,0.40
2023-10-16T11:31:02.092Z,0.93
2023-10-16T11:33:45.842Z,0.32
2023-10-16T11:36:17.884Z,0.50
2023-10-16T11:38:49.029Z,0.52
2023-10-16T11:43:55.604Z,0.25
2023-10-16T11:46:35.503Z,0.47
2023-10-16T11:52:24.521Z,0.55
2023-10-16T11:55:01.312Z,0.60
2023-10-16T11:57:36.573Z,0.50
2023-10-16T12:00:19.971Z,0.68
2023-10-16T12:02:51.329Z,0.45
2023-10-16T12:05:22.304Z,0.57
2023-10-16T12:07:54.005Z,0.30
2023-10-16T12:10:24.591Z,0.45
2023-10-16T12:13:00.467Z,1.05
2023-10-16T12:15:31.345Z,0.43
2023-10-16T12:18:04.450Z,0.85
2023-10-16T12:20:37.532Z,0.38
2023-10-16T12:23:08.444Z,0.20
2023-10-16T12:28:11.789Z,0.50
2023-10-16T12:30:45.919Z,0.43
2023-10-16T12:33:16.762Z,0.50
2023-10-16T12:35:49.113Z,0.47
2023-10-16T12:38:20.710Z,0.30
2023-10-16T12:40:53.573Z,0.35
2023-10-16T12:43:32.053Z,0.50
2023-10-16T12:46:03.184Z,0.35
2023-10-16T12:48:33.707Z,0.50
2023-10-16T12:51:12.077Z,0.25
2023-10-16T12:53:50.468Z,0.20
2023-10-16T12:56:26.777Z,0.40
2023-10-16T12:59:01.005Z,0.82
2023-10-16T13:01:32.202Z,0.63
2023-10-16T13:04:05.070Z,0.75
2023-10-16T13:06:35.618Z,0.15
2023-10-16T13:09:07.536Z,0.30
2023-10-16T13:11:39.810Z,0.32
2023-10-16T13:14:14.390Z,0.60
2023-10-16T13:16:54.671Z,0.40
2023-10-16T13:19:28.924Z,0.43
2023-10-16T13:22:10.086Z,0.47
2023-10-16T13:24:42.531Z,0.38
2023-10-16T13:27:12.846Z,0.30
2023-10-16T13:29:47.179Z,0.50
2023-10-16T13:32:17.570Z,0.47
2023-10-16T13:34:47.960Z,0.35
2023-10-16T13:37:19.918Z,0.22
2023-10-16T13:39:50.231Z,0.32
2023-10-16T13:42:22.617Z,0.32
2023-10-16T13:44:59.961Z,0.90
2023-10-16T13:47:36.056Z,0.50
2023-10-16T13:50:11.131Z,0.55
2023-10-16T13:52:43.829Z,0.52
2023-10-16T13:55:22.111Z,0.63
2023-10-16T13:58:02.292Z,0.52
2023-10-16T14:00:39.787Z,0.60
2023-10-16T14:03:18.705Z,0.73
2023-10-16T14:05:53.531Z,0.35
2023-10-16T14:08:28.406Z,0.45
2023-10-16T14:11:01.547Z,0.57
2023-10-16T14:13:33.798Z,0.30
2023-10-16T14:16:12.860Z,0.40
2023-10-16T14:18:45.234Z,0.38
2023-10-16T14:21:18.650Z,0.55
2023-10-16T14:23:52.432Z,0.50
2023-10-16T14:26:26.018Z,0.77
2023-10-16T14:29:01.059Z,0.60
2023-10-16T14:31:37.570Z,0.80
2023-10-16T14:34:10.111Z,1.15
2023-10-16T14:36:47.263Z,0.20
2023-10-16T14:39:18.804Z,0.50
2023-10-16T14:41:51.388Z,0.45
2023-10-16T14:44:25.379Z,0.40
2023-10-16T14:46:59.299Z,0.45
2023-10-16T14:49:32.215Z,0.63
2023-10-16T14:52:04.337Z,0.52
2023-10-16T14:54:34.686Z,0.60
2023-10-16T14:57:05.594Z,0.20
2023-10-16T14:59:36.642Z,0.50
2023-10-16T15:02:12.757Z,0.43
2023-10-16T15:04:45.921Z,0.65
2023-10-16T15:07:17.569Z,0.38
2023-10-16T15:09:48.175Z,0.38
2023-10-16T15:12:21.315Z,0.70
2023-10-16T15:14:59.164Z,0.32
2023-10-16T15:17:51.425Z,0.52
2023-10-16T15:20:26.270Z,0.50
2023-10-16T15:22:59.369Z,0.52
2023-10-16T15:25:30.850Z,0.80
2023-10-16T15:28:02.612Z,0.40
2023-10-16T15:30:33.453Z,0.43
2023-10-16T15:33:13.313Z,0.40
2023-10-16T15:35:46.510Z,0.52
2023-10-16T15:38:21.276Z,1.20
2023-10-16T15:40:51.643Z,0.90
2023-10-16T15:43:22.169Z,0.60
2023-10-16T15:48:31.021Z,0.93
2023-10-16T15:51:02.007Z,1.60
2023-10-16T15:53:42.318Z,1.92
2023-10-16T15:56:12.803Z,1.35
2023-10-16T15:58:43.660Z,1.83
2023-10-16T16:01:22.987Z,6.10
2023-10-16T16:04:02.638Z,4.60
2023-10-16T16:06:34.875Z,2.97
2023-10-16T16:09:13.804Z,2.10
2023-10-16T16:11:45.709Z,3.75
2023-10-16T16:14:20.076Z,3.90
2023-10-16T16:16:54.459Z,3.05
2023-10-16T16:19:29.539Z,2.67
2023-10-16T16:22:00.321Z,1.35
2023-10-16T16:24:33.411Z,1.73
2023-10-16T16:27:08.612Z,2.40
2023-10-16T16:28:22.160Z,0.52
2023-10-16T16:29:41.759Z,0.85
2023-10-16T16:32:14.128Z,1.08
2023-10-16T16:34:47.625Z,0.73
2023-10-16T16:37:21.522Z,0.88
2023-10-16T16:39:52.567Z,0.95
2023-10-16T16:42:23.873Z,0.70
2023-10-16T16:44:55.950Z,1.05
2023-10-16T16:47:26.827Z,0.85
2023-10-16T16:50:04.700Z,1.00
2023-10-16T16:52:41.841Z,1.13
2023-10-16T16:55:16.857Z,1.20
2023-10-16T16:57:50.619Z,1.25
2023-10-16T17:00:28.118Z,0.88
2023-10-16T17:03:03.488Z,1.13
2023-10-16T17:05:40.367Z,1.08
2023-10-16T17:08:24.667Z,0.40
2023-10-16T17:10:57.250Z,1.05
2023-10-16T17:13:31.760Z,1.10
2023-10-16T17:16:10.108Z,1.15
2023-10-16T17:18:45.104Z,1.35
2023-10-16T17:21:37.371Z,1.25
2023-10-16T17:24:12.172Z,1.05
2023-10-16T17:26:45.879Z,1.05
2023-10-16T17:29:25.760Z,1.42
2023-10-16T17:31:56.962Z,1.48
2023-10-16T17:34:28.820Z,1.98
2023-10-16T17:37:10.931Z,3.53
2023-10-16T17:39:41.799Z,2.72
2023-10-16T17:42:15.177Z,2.60
2023-10-16T17:44:49.100Z,2.65
2023-10-16T17:47:21.126Z,2.58
2023-10-16T17:50:00.550Z,2.38
2023-10-16T17:52:39.917Z,2.25
2023-10-16T17:55:15.759Z,1.85
2023-10-16T17:57:46.680Z,1.98
2023-10-16T18:00:22.178Z,2.22
2023-10-16T18:02:53.034Z,2.25
2023-10-16T18:05:27.152Z,3.15
2023-10-16T18:08:05.921Z,3.33
2023-10-16T18:10:41.462Z,5.07
2023-10-16T18:13:14.097Z,4.47
2023-10-16T18:15:53.105Z,3.20
2023-10-16T18:18:27.027Z,3.65
2023-10-16T18:21:02.289Z,4.82
2023-10-16T18:23:37.696Z,3.95
2023-10-16T18:26:09.646Z,2.95
2023-10-16T18:28:42.994Z,2.55
2023-10-16T18:31:15.177Z,2.97
2023-10-16T18:33:54.681Z,4.40
2023-10-16T18:36:30.028Z,3.55
2023-10-16T18:39:11.321Z,4.07
2023-10-16T18:41:42.876Z,3.72
2023-10-16T18:44:15.674Z,4.40
2023-10-16T18:46:50.255Z,4.57
2023-10-16T18:49:25.889Z,4.88
2023-10-16T18:51:57.113Z,3.45
2023-10-16T18:54:32.860Z,4.25
2023-10-16T18:57:05.944Z,4.40
2023-10-16T18:59:37.237Z,5.43
2023-10-16T19:02:10.613Z,5.53
2023-10-16T19:04:41.472Z,9.05
2023-10-16T19:07:15.361Z,7.25
2023-10-16T19:09:49.749Z,6.78
2023-10-16T19:12:22.123Z,4.35
2023-10-16T19:14:55.117Z,3.38
2023-10-16T19:17:29.193Z,3.67
2023-10-16T19:20:08.942Z,5.30
2023-10-16T19:22:45.266Z,5.03
2023-10-16T19:25:18.839Z,5.18
2023-10-16T19:27:49.639Z,4.57
2023-10-16T19:30:21.488Z,5.25
2023-10-16T19:32:53.695Z,4.40
2023-10-16T19:35:25.501Z,5.10
2023-10-16T19:37:56.365Z,4.07
2023-10-16T19:40:31.344Z,4.80
2023-10-16T19:43:02.346Z,4.63
2023-10-16T19:45:33.914Z,3.63
2023-10-16T19:48:06.238Z,4.43
2023-10-16T19:50:37.714Z,3.80
2023-10-16T19:53:10.673Z,3.00
2023-10-16T19:55:46.388Z,2.85
2023-10-16T19:58:18.111Z,2.05
2023-10-16T20:00:49.182Z,1.85
2023-10-16T20:03:22.213Z,1.75
2023-10-16T20:05:53.130Z,1.77
2023-10-16T20:08:24.799Z,2.13
2023-10-16T20:10:58.163Z,2.60
2023-10-16T20:13:29.048Z,1.85
2023-10-16T20:16:00.478Z,2.55
2023-10-16T20:18:31.212Z,1.80
2023-10-16T20:21:07.233Z,2.80
2023-10-16T20:23:38.163Z,1.98
2023-10-16T20:26:18.226Z,2.22
2023-10-16T20:28:50.507Z,1.60
2023-10-16T20:31:26.076Z,2.35
2023-10-16T20:34:00.706Z,1.48
2023-10-16T20:36:31.472Z,1.90
2023-10-16T20:41:38.063Z,1.58
2023-10-16T20:44:09.939Z,2.25
2023-10-16T20:46:40.734Z,2.70
2023-10-16T20:49:11.055Z,2.45
2023-10-16T20:51:42.095Z,2.97
2023-10-16T20:54:13.909Z,2.53
2023-10-16T20:56:47.405Z,2.35
2023-10-16T20:59:18.254Z,2.58
2023-10-16T21:01:51.381Z,3.22
2023-10-16T21:04:21.681Z,2.55
2023-10-16T21:06:54.451Z,2.75
2023-10-16T21:09:25.005Z,3.10
2023-10-16T21:11:58.471Z,3.47
2023-10-16T21:14:29.410Z,2.03
2023-10-16T21:17:00.332Z,2.67
2023-10-16T21:22:01.704Z,3.60
2023-10-16T21:27:07.694Z,2.78
2023-10-16T21:29:38.499Z,2.00
2023-10-16T21:32:11.625Z,1.73
2023-10-16T21:34:42.409Z,1.80
2023-10-16T21:37:15.712Z,2.25
2023-10-16T21:39:48.278Z,2.08
2023-10-16T21:42:22.218Z,2.40
2023-10-16T21:44:53.498Z,3.70
2023-10-16T21:47:24.571Z,2.20
2023-10-16T21:49:55.807Z,2.35
2023-10-16T21:52:27.412Z,2.15
2023-10-16T21:54:59.807Z,1.65
2023-10-16T21:57:32.964Z,1.85
2023-10-16T22:00:13.002Z,2.00
2023-10-16T22:02:47.764Z,1.85
2023-10-16T22:05:19.582Z,1.75
2023-10-16T22:07:52.144Z,1.60
2023-10-16T22:10:24.026Z,2.15
2023-10-16T22:12:57.319Z,2.03
2023-10-16T22:15:28.426Z,1.45
2023-10-16T22:18:03.123Z,1.55
2023-10-16T22:20:34.238Z,1.30
2023-10-16T22:23:05.056Z,1.65
2023-10-16T22:28:10.516Z,1.13
2023-10-16T22:30:42.076Z,1.13
2023-10-16T22:33:13.038Z,1.30
2023-10-16T22:35:44.269Z,1.45
2023-10-16T22:38:14.984Z,1.55
2023-10-16T22:40:46.334Z,0.95
2023-10-16T22:45:49.941Z,1.08
2023-10-16T22:48:20.771Z,1.27
2023-10-16T22:53:23.082Z,0.85
2023-10-16T22:55:54.190Z,1.73
2023-10-16T22:58:28.309Z,1.17
2023-10-16T23:01:02.062Z,2.28
2023-10-16T23:03:33.045Z,1.42
2023-10-16T23:06:04.007Z,1.42
2023-10-16T23:08:40.464Z,1.13
2023-10-16T23:11:19.400Z,2.10
2023-10-16T23:13:55.273Z,1.15
2023-10-16T23:16:27.582Z,1.00
2023-10-16T23:19:10.312Z,1.90
2023-10-16T23:21:44.014Z,1.23
2023-10-16T23:24:14.647Z,1.58
2023-10-16T23:26:45.470Z,1.63
2023-10-16T23:29:21.236Z,1.33
2023-10-16T23:31:56.470Z,1.38
2023-10-16T23:34:27.878Z,1.23
2023-10-16T23:37:04.490Z,1.17
2023-10-16T23:39:35.564Z,1.08
2023-10-16T23:42:18.529Z,1.00
2023-10-16T23:44:52.185Z,0.98
2023-10-16T23:47:23.070Z,1.08
2023-10-16T23:49:53.803Z,1.40
2023-10-16T23:52:38.049Z,1.02
2023-10-16T23:55:15.289Z,0.98
2023-10-16T23:57:52.860Z,1.05
